Time;durP1;ratioP1;P1;durP2;ratioP2;P2;SDS_P1;SDS_P2;PMS_P1;PMS_P2;Temp;Humidity;BMP_temperature;BMP_pressure;BME280_temperature;BME280_humidity;BME280_pressure;Samples;Min_cycle;Max_cycle;Signal;HPM_P1;HPM_P2
2022/11/13 00:02:09;;;;;;;3.03;2.72;;;11.40;99.90;;;;;;5091483;28;20404;-76
2022/11/13 00:04:35;;;;;;;3.70;3.33;;;11.40;99.90;;;;;;5092017;28;20020;-76
2022/11/13 00:07:00;;;;;;;3.35;2.85;;;11.40;99.90;;;;;;5092152;28;20036;-76
2022/11/13 00:09:26;;;;;;;3.20;2.58;;;11.40;99.90;;;;;;5091902;28;20044;-76
2022/11/13 00:11:52;;;;;;;3.13;2.60;;;11.40;99.90;;;;;;5091843;28;20080;-76
2022/11/13 00:14:18;;;;;;;3.13;2.83;;;11.40;99.90;;;;;;5095654;28;20035;-76
2022/11/13 00:16:43;;;;;;;3.55;3.00;;;11.30;99.90;;;;;;5095643;28;20109;-76
2022/11/13 00:19:09;;;;;;;3.25;2.95;;;11.30;99.90;;;;;;5095301;28;20030;-76
2022/11/13 00:21:35;;;;;;;3.00;2.70;;;11.20;99.90;;;;;;5095570;28;20016;-76
2022/11/13 00:24:00;;;;;;;3.53;2.72;;;11.10;99.90;;;;;;5095346;28;20101;-76
2022/11/13 00:26:28;;;;;;;3.08;2.75;;;11.20;99.90;;;;;;5095370;28;20524;-76
2022/11/13 00:28:57;;;;;;;3.13;2.70;;;11.20;99.90;;;;;;5094049;28;20489;-75
2022/11/13 00:31:23;;;;;;;3.47;2.70;;;11.30;99.90;;;;;;5093805;28;20043;-75
2022/11/13 00:33:49;;;;;;;2.80;2.60;;;11.30;99.90;;;;;;5095044;28;20035;-75
2022/11/13 00:36:17;;;;;;;2.85;2.53;;;11.40;99.90;;;;;;5093814;28;20021;-75
2022/11/13 00:38:43;;;;;;;3.05;2.75;;;11.30;99.90;;;;;;5095279;28;20032;-75
2022/11/13 00:41:09;;;;;;;2.75;2.50;;;11.20;99.90;;;;;;5097649;28;20147;-75
2022/11/13 00:43:35;;;;;;;2.80;2.60;;;11.20;99.90;;;;;;5103787;28;20517;-75
2022/11/13 00:46:01;;;;;;;3.08;2.30;;;11.10;99.90;;;;;;5095152;28;20030;-75
2022/11/13 00:48:26;;;;;;;3.00;2.70;;;11.10;99.90;;;;;;5094737;28;20032;-75
2022/11/13 00:50:52;;;;;;;2.53;2.30;;;11.00;99.90;;;;;;5094701;28;20039;-75
2022/11/13 00:53:18;;;;;;;2.92;2.55;;;10.90;99.90;;;;;;5094825;28;20024;-75
2022/11/13 00:55:44;;;;;;;3.22;2.85;;;11.00;99.90;;;;;;5094833;28;20066;-75
2022/11/13 00:58:11;;;;;;;2.90;2.70;;;11.10;99.90;;;;;;5094482;28;20055;-75
2022/11/13 01:00:38;;;;;;;2.83;2.40;;;11.00;99.90;;;;;;5094795;28;20031;-75
2022/11/13 01:03:04;;;;;;;2.55;2.35;;;10.90;99.90;;;;;;5094784;28;20028;-76
2022/11/13 01:05:29;;;;;;;3.08;2.65;;;10.80;99.90;;;;;;5094586;28;20397;-75
2022/11/13 01:07:55;;;;;;;2.85;2.55;;;10.90;99.90;;;;;;5094855;28;20024;-75
2022/11/13 01:10:22;;;;;;;2.72;2.40;;;10.70;99.90;;;;;;5094843;28;20034;-76
2022/11/13 01:12:48;;;;;;;2.88;2.50;;;10.50;99.90;;;;;;5094060;28;20024;-75
2022/11/13 01:15:13;;;;;;;2.80;2.10;;;10.70;99.90;;;;;;5094356;28;20028;-75
2022/11/13 01:17:39;;;;;;;2.63;2.42;;;10.70;99.90;;;;;;5092910;28;20031;-76
2022/11/13 01:20:05;;;;;;;4.05;3.20;;;10.70;99.90;;;;;;5094522;28;20020;-76
2022/11/13 01:22:31;;;;;;;4.90;2.85;;;10.70;99.90;;;;;;5094317;28;20016;-75
2022/11/13 01:24:57;;;;;;;3.22;2.70;;;10.70;99.90;;;;;;5093944;28;20044;-75
2022/11/13 01:27:22;;;;;;;2.80;2.60;;;10.70;99.90;;;;;;5094267;28;20024;-75
2022/11/13 01:29:48;;;;;;;6.65;4.38;;;10.60;99.90;;;;;;5094081;28;20082;-75
2022/11/13 01:32:14;;;;;;;7.25;4.55;;;10.60;99.90;;;;;;5092558;28;20119;-75
2022/11/13 01:34:39;;;;;;;8.23;5.28;;;10.60;99.90;;;;;;5092838;28;20028;-75
2022/11/13 01:37:05;;;;;;;8.35;4.90;;;10.60;99.90;;;;;;5093905;28;20024;-75
2022/11/13 01:39:31;;;;;;;9.50;5.18;;;10.60;99.90;;;;;;5094162;28;20024;-75
2022/11/13 01:41:56;;;;;;;10.07;5.30;;;10.50;99.90;;;;;;5103086;28;20016;-75
2022/11/13 01:44:22;;;;;;;11.68;6.10;;;10.50;99.90;;;;;;5095831;28;20508;-75
2022/11/13 01:46:54;;;;;;;10.60;5.38;;;10.40;99.90;;;;;;5093812;28;20028;-75
2022/11/13 01:49:52;;;;;;;;;;;10.40;99.90;;;;;;5094319;28;20026;-75
2022/11/13 01:52:24;;;;;;;8.35;5.22;;;10.40;99.90;;;;;;5011175;28;19928;-75
2022/11/13 01:54:54;;;;;;;8.15;5.13;;;10.30;99.90;;;;;;4995018;28;20053;-75
2022/11/13 01:57:20;;;;;;;7.80;4.80;;;10.20;99.90;;;;;;5011469;28;20105;-75
2022/11/13 01:59:53;;;;;;;6.70;4.53;;;10.20;99.90;;;;;;5011323;28;20026;-75
2022/11/13 02:02:19;;;;;;;5.75;3.85;;;10.30;99.90;;;;;;5011039;28;20144;-75
2022/11/13 02:04:45;;;;;;;7.70;4.32;;;10.30;99.90;;;;;;5011083;28;20507;-75
2022/11/13 02:07:14;;;;;;;4.93;3.65;;;10.30;99.90;;;;;;5011023;28;20022;-75
2022/11/13 02:09:47;;;;;;;7.40;4.57;;;10.20;99.90;;;;;;5011202;28;20084;-75
2022/11/13 02:12:15;;;;;;;5.65;3.47;;;10.20;99.90;;;;;;4994227;28;20034;-75
2022/11/13 02:14:52;;;;;;;4.97;3.47;;;10.30;99.90;;;;;;5010906;28;20096;-75
2022/11/13 02:17:26;;;;;;;5.68;3.85;;;10.10;99.90;;;;;;5010955;28;20022;-75
2022/11/13 02:19:56;;;;;;;4.97;3.47;;;10.20;99.90;;;;;;5011066;28;20036;-75
2022/11/13 02:22:34;;;;;;;4.60;3.45;;;10.00;99.90;;;;;;5010619;28;20026;-75
2022/11/13 02:25:01;;;;;;;4.72;3.33;;;10.00;99.90;;;;;;5010883;28;20049;-75
2022/11/13 02:27:41;;;;;;;3.67;3.05;;;10.00;99.90;;;;;;5030677;28;20040;-75
2022/11/13 02:30:11;;;;;;;3.75;3.30;;;10.00;99.90;;;;;;5072919;28;20032;-75
2022/11/13 02:32:42;;;;;;;4.85;3.15;;;9.90;99.90;;;;;;5072638;28;20048;-75
2022/11/13 02:35:08;;;;;;;3.67;3.10;;;9.90;99.90;;;;;;5071093;28;20582;-74
2022/11/13 02:37:34;;;;;;;3.63;2.85;;;9.70;99.90;;;;;;5071117;28;20042;-75
2022/11/13 02:40:00;;;;;;;4.65;2.85;;;9.80;99.90;;;;;;5071474;28;20497;-75
2022/11/13 02:42:25;;;;;;;4.60;2.90;;;9.80;99.90;;;;;;5098140;28;20485;-75
2022/11/13 02:44:51;;;;;;;2.88;2.58;;;9.80;99.90;;;;;;5092483;28;20409;-75
2022/11/13 02:47:16;;;;;;;2.70;2.35;;;9.80;99.90;;;;;;5092766;28;20389;-75
2022/11/13 02:49:42;;;;;;;3.10;2.78;;;9.90;99.90;;;;;;5092612;28;20402;-74
2022/11/13 02:52:08;;;;;;;3.20;2.60;;;9.80;99.90;;;;;;5092896;28;20066;-75
2022/11/13 02:54:33;;;;;;;2.88;2.65;;;9.80;99.90;;;;;;5091370;28;20040;-75
2022/11/13 02:56:59;;;;;;;3.58;2.83;;;9.80;99.90;;;;;;5092445;28;20020;-75
2022/11/13 02:59:24;;;;;;;3.55;2.63;;;9.80;99.90;;;;;;5092930;28;20020;-75
2022/11/13 03:01:50;;;;;;;4.85;3.22;;;9.70;99.90;;;;;;5092743;28;20024;-74
2022/11/13 03:04:16;;;;;;;3.08;2.75;;;9.50;99.90;;;;;;5092413;28;20034;-75
2022/11/13 03:06:41;;;;;;;3.22;2.92;;;9.40;99.90;;;;;;5092685;28;20070;-74
2022/11/13 03:09:07;;;;;;;3.00;2.60;;;9.40;99.90;;;;;;5092548;28;20466;-75
2022/11/13 03:11:33;;;;;;;3.28;2.65;;;9.50;99.90;;;;;;5091825;28;20485;-75
2022/11/13 03:13:58;;;;;;;3.88;2.78;;;9.60;99.90;;;;;;5092411;28;20024;-74
2022/11/13 03:16:24;;;;;;;3.97;2.47;;;9.60;99.90;;;;;;5092143;28;20024;-75
2022/11/13 03:18:50;;;;;;;3.33;2.83;;;9.50;99.90;;;;;;5090809;28;20028;-75
2022/11/13 03:21:15;;;;;;;2.95;2.65;;;9.40;99.90;;;;;;5092417;28;20048;-74
2022/11/13 03:23:44;;;;;;;3.80;2.70;;;9.50;99.90;;;;;;5091805;28;20102;-74
2022/11/13 03:26:12;;;;;;;3.15;2.72;;;9.50;99.90;;;;;;5092094;28;20511;-75
2022/11/13 03:28:37;;;;;;;3.13;2.70;;;9.50;99.90;;;;;;5092334;28;20024;-74
2022/11/13 03:31:04;;;;;;;2.92;2.63;;;9.50;99.90;;;;;;5092042;28;20561;-74
2022/11/13 03:33:30;;;;;;;2.47;2.28;;;9.40;99.90;;;;;;5091543;28;20124;-74
2022/11/13 03:35:56;;;;;;;2.30;2.10;;;9.40;99.90;;;;;;5092339;28;20073;-74
2022/11/13 03:38:22;;;;;;;2.50;2.30;;;9.30;99.90;;;;;;5092121;28;20028;-74
2022/11/13 03:40:48;;;;;;;2.97;2.67;;;9.20;99.90;;;;;;5091901;28;20510;-74
2022/11/13 03:43:14;;;;;;;2.45;2.25;;;9.30;99.90;;;;;;5089134;28;20092;-74
2022/11/13 03:45:40;;;;;;;2.55;2.22;;;9.20;99.90;;;;;;5092197;28;20030;-74
2022/11/13 03:48:06;;;;;;;2.85;2.30;;;9.20;99.90;;;;;;5092741;28;20497;-74
2022/11/13 03:50:32;;;;;;;2.67;2.47;;;9.00;99.90;;;;;;5096480;28;20460;-74
2022/11/13 03:52:57;;;;;;;2.88;2.10;;;9.10;99.90;;;;;;5094535;28;20378;-74
2022/11/13 03:55:23;;;;;;;3.15;2.25;;;9.10;99.90;;;;;;5096199;28;20106;-74
2022/11/13 03:57:49;;;;;;;2.13;1.92;;;8.90;99.90;;;;;;5094648;28;20386;-74
2022/11/13 04:00:15;;;;;;;2.97;2.65;;;8.80;99.90;;;;;;5096152;28;20028;-74
2022/11/13 04:02:40;;;;;;;2.97;2.63;;;8.90;99.90;;;;;;5095652;28;20120;-74
2022/11/13 04:05:07;;;;;;;3.70;2.60;;;8.90;99.90;;;;;;5096050;28;20501;-75
2022/11/13 04:07:33;;;;;;;3.08;2.78;;;8.90;99.90;;;;;;5095700;28;20016;-74
2022/11/13 04:09:58;;;;;;;2.50;2.30;;;9.00;99.90;;;;;;5094275;28;20042;-74
2022/11/13 04:12:24;;;;;;;3.28;2.47;;;8.90;99.90;;;;;;5095394;28;20050;-74
2022/11/13 04:14:49;;;;;;;2.72;2.28;;;8.80;99.90;;;;;;5095508;28;20028;-74
2022/11/13 04:17:15;;;;;;;3.25;2.30;;;8.70;99.90;;;;;;5095525;28;20423;-74
2022/11/13 04:19:41;;;;;;;3.28;2.55;;;8.70;99.90;;;;;;5094313;28;20062;-74
2022/11/13 04:22:06;;;;;;;2.15;1.95;;;8.70;99.90;;;;;;5095663;28;20016;-74
2022/11/13 04:24:32;;;;;;;2.33;2.15;;;8.80;99.90;;;;;;5095022;28;20501;-74
2022/11/13 04:26:58;;;;;;;3.72;2.42;;;8.70;99.90;;;;;;5095525;28;20027;-74
2022/11/13 04:29:24;;;;;;;2.50;2.30;;;8.60;99.90;;;;;;5095448;28;20036;-74
2022/11/13 04:31:49;;;;;;;2.97;2.55;;;8.60;99.90;;;;;;5095490;28;20486;-74
2022/11/13 04:34:15;;;;;;;3.38;2.58;;;8.40;99.90;;;;;;5093638;28;20101;-74
2022/11/13 04:36:40;;;;;;;3.03;2.72;;;8.40;99.90;;;;;;5095711;28;20051;-74
2022/11/13 04:39:06;;;;;;;2.92;2.47;;;8.50;99.90;;;;;;5095050;28;20542;-74
2022/11/13 04:44:16;;;;;;;3.15;2.83;;;8.40;99.90;;;;;;5098086;28;20088;-74
2022/11/13 04:46:42;;;;;;;2.13;1.98;;;8.50;99.90;;;;;;5095219;28;20024;-74
2022/11/13 04:49:07;;;;;;;2.50;2.30;;;8.50;99.90;;;;;;5094908;28;20565;-73
2022/11/13 04:51:33;;;;;;;2.80;2.00;;;8.70;99.90;;;;;;5094976;28;20024;-74
2022/11/13 04:53:59;;;;;;;2.95;2.55;;;8.60;99.90;;;;;;5094908;28;20501;-74
2022/11/13 04:56:24;;;;;;;2.22;2.03;;;8.60;99.90;;;;;;5094951;28;20397;-74
2022/11/13 04:58:50;;;;;;;2.33;2.13;;;8.40;99.90;;;;;;5093012;28;20028;-73
2022/11/13 05:01:16;;;;;;;2.80;2.10;;;8.50;99.90;;;;;;5095075;28;20019;-74
2022/11/13 05:03:41;;;;;;;2.55;2.35;;;8.60;99.90;;;;;;5093102;28;20181;-74
2022/11/13 05:06:09;;;;;;;2.88;2.55;;;8.30;99.90;;;;;;5094921;28;20434;-74
2022/11/13 05:08:35;;;;;;;2.63;2.42;;;8.10;99.90;;;;;;5094576;28;20071;-74
2022/11/13 05:11:02;;;;;;;2.88;2.67;;;8.20;99.90;;;;;;5094214;28;20024;-74
2022/11/13 05:13:33;;;;;;;2.90;2.67;;;8.40;99.90;;;;;;5092965;28;20028;-73
2022/11/13 05:16:00;;;;;;;2.87;2.67;;;8.60;99.90;;;;;;5094680;28;20016;-74
2022/11/13 05:18:26;;;;;;;2.50;2.30;;;8.60;99.90;;;;;;5094272;28;20485;-73
2022/11/13 05:20:52;;;;;;;2.97;2.15;;;8.50;99.90;;;;;;5093088;28;20077;-73
2022/11/13 05:23:17;;;;;;;2.40;2.20;;;8.60;99.90;;;;;;5093805;28;20115;-74
2022/11/13 05:25:43;;;;;;;2.50;2.30;;;8.70;99.90;;;;;;5094348;28;20032;-74
2022/11/13 05:28:09;;;;;;;2.25;2.08;;;8.70;99.90;;;;;;5094106;28;20024;-76
2022/11/13 05:30:34;;;;;;;2.42;2.22;;;8.90;99.90;;;;;;5092899;28;20039;-77
2022/11/13 05:33:00;;;;;;;2.20;2.00;;;8.90;99.90;;;;;;5094108;28;20518;-77
2022/11/13 05:35:26;;;;;;;2.35;2.15;;;9.00;99.90;;;;;;5094227;28;20107;-74
2022/11/13 05:37:51;;;;;;;2.40;2.20;;;9.00;99.90;;;;;;5094091;28;20028;-74
2022/11/13 05:40:17;;;;;;;2.30;2.10;;;8.80;99.90;;;;;;5094191;28;20551;-74
2022/11/13 05:42:43;;;;;;;2.35;2.15;;;8.80;99.90;;;;;;5105424;28;20509;-74
2022/11/13 05:45:09;;;;;;;2.40;2.20;;;8.90;99.90;;;;;;5094064;28;20385;-74
2022/11/13 05:47:34;;;;;;;2.00;1.90;;;8.80;99.90;;;;;;5093934;28;20024;-74
2022/11/13 05:50:00;;;;;;;2.22;2.00;;;8.70;99.90;;;;;;5093665;28;20020;-74
2022/11/13 05:52:26;;;;;;;2.50;2.30;;;8.70;99.90;;;;;;5093640;28;20030;-73
2022/11/13 05:54:51;;;;;;;2.35;2.15;;;8.40;99.90;;;;;;5093762;28;20544;-73
2022/11/13 05:57:17;;;;;;;3.05;2.22;;;8.30;99.90;;;;;;5093920;28;20095;-74
2022/11/13 05:59:43;;;;;;;2.50;2.30;;;8.40;99.90;;;;;;5093716;28;20477;-74
2022/11/13 06:02:08;;;;;;;2.28;2.08;;;8.40;99.90;;;;;;5093734;28;20020;-74
2022/11/13 06:04:34;;;;;;;2.38;2.17;;;8.30;99.90;;;;;;5091873;28;20533;-76
2022/11/13 06:07:00;;;;;;;2.42;2.22;;;8.20;99.90;;;;;;5093390;28;20370;-76
2022/11/13 06:09:25;;;;;;;2.10;2.00;;;8.40;99.90;;;;;;5091641;28;20036;-73
2022/11/13 06:11:51;;;;;;;2.60;2.40;;;8.40;99.90;;;;;;5092698;28;20028;-74
2022/11/13 06:14:17;;;;;;;2.80;2.30;;;8.50;99.90;;;;;;5093282;28;20035;-74
2022/11/13 06:16:42;;;;;;;2.47;2.28;;;8.50;99.90;;;;;;5093530;28;20384;-74
2022/11/13 06:19:09;;;;;;;2.28;2.10;;;8.40;99.90;;;;;;5092943;28;20025;-74
2022/11/13 06:21:38;;;;;;;2.47;2.08;;;8.40;99.90;;;;;;5093206;28;20016;-74
2022/11/13 06:24:04;;;;;;;2.40;2.20;;;8.30;99.90;;;;;;5093186;28;20096;-73
2022/11/13 06:26:33;;;;;;;2.30;2.10;;;8.20;99.90;;;;;;5093294;28;20493;-74
2022/11/13 06:29:00;;;;;;;2.45;2.25;;;8.30;99.90;;;;;;5093037;28;20130;-74
2022/11/13 06:31:27;;;;;;;2.75;2.40;;;8.20;99.90;;;;;;5092896;28;20080;-74
2022/11/13 06:33:53;;;;;;;2.13;2.00;;;8.10;99.90;;;;;;5092335;28;20031;-74
2022/11/13 06:36:34;;;;;;;1.90;1.80;;;8.10;99.90;;;;;;5093168;28;20016;-74
2022/11/13 06:38:59;;;;;;;2.17;1.98;;;8.00;99.90;;;;;;5092815;28;20024;-75
2022/11/13 06:41:28;;;;;;;2.20;2.00;;;7.80;99.90;;;;;;5096431;28;20011;-76
2022/11/13 06:43:54;;;;;;;2.35;2.15;;;7.70;99.90;;;;;;5100015;28;20032;-74
2022/11/13 06:46:22;;;;;;;2.20;2.00;;;7.70;99.90;;;;;;5092736;28;20490;-76
2022/11/13 06:48:48;;;;;;;2.20;2.00;;;7.80;99.90;;;;;;5092327;28;20103;-76
2022/11/13 06:51:19;;;;;;;1.95;1.85;;;7.80;99.90;;;;;;5091048;28;20059;-76
2022/11/13 06:53:46;;;;;;;2.22;2.03;;;7.80;99.90;;;;;;5092664;28;20085;-76
2022/11/13 06:56:12;;;;;;;1.90;1.80;;;7.90;99.90;;;;;;5092600;28;20505;-73
2022/11/13 06:58:39;;;;;;;2.33;1.88;;;7.90;99.90;;;;;;5092547;28;20027;-76
2022/11/13 07:01:11;;;;;;;2.15;2.00;;;7.90;99.90;;;;;;5092861;28;20027;-76
2022/11/13 07:03:37;;;;;;;2.30;2.10;;;8.00;99.90;;;;;;5092200;28;20027;-76
2022/11/13 07:06:05;;;;;;;2.47;2.28;;;8.00;99.90;;;;;;5092834;28;20032;-74
2022/11/13 07:08:32;;;;;;;2.25;2.05;;;7.90;99.90;;;;;;5092697;28;20032;-73
2022/11/13 07:10:58;;;;;;;1.92;1.77;;;7.90;99.90;;;;;;5090994;28;20051;-74
2022/11/13 07:13:25;;;;;;;2.35;1.95;;;7.90;99.90;;;;;;5090776;28;20513;-73
2022/11/13 07:15:51;;;;;;;2.13;1.80;;;7.90;99.90;;;;;;5072417;28;20028;-73
2022/11/13 07:18:17;;;;;;;2.10;2.00;;;7.90;99.90;;;;;;5071423;28;20038;-74
2022/11/13 07:20:42;;;;;;;2.13;1.92;;;7.90;99.90;;;;;;5072039;28;20031;-76
2022/11/13 07:23:08;;;;;;;2.13;1.98;;;8.00;99.90;;;;;;5072405;28;20028;-76
2022/11/13 07:25:34;;;;;;;2.10;1.92;;;8.10;99.90;;;;;;5070523;28;20067;-76
2022/11/13 07:27:59;;;;;;;2.35;2.15;;;8.10;99.90;;;;;;5072311;28;20081;-76
2022/11/13 07:30:25;;;;;;;2.45;2.20;;;8.10;99.90;;;;;;5071900;28;20378;-76
2022/11/13 07:32:51;;;;;;;2.65;2.10;;;8.20;99.90;;;;;;5071838;28;20121;-76
2022/11/13 07:35:17;;;;;;;2.30;2.10;;;8.10;99.90;;;;;;5072113;28;20581;-76
2022/11/13 07:37:43;;;;;;;2.22;2.10;;;8.20;99.90;;;;;;5072133;28;20055;-73
2022/11/13 07:40:10;;;;;;;2.25;2.03;;;8.30;99.90;;;;;;5072061;28;20474;-76
2022/11/13 07:42:36;;;;;;;2.55;2.35;;;8.40;99.90;;;;;;5098370;28;20016;-76
2022/11/13 07:45:02;;;;;;;3.08;2.60;;;8.40;99.90;;;;;;5092043;28;20100;-76
2022/11/13 07:47:28;;;;;;;3.58;2.33;;;8.40;99.90;;;;;;5092046;28;20085;-76
2022/11/13 07:49:53;;;;;;;3.17;2.88;;;8.40;99.90;;;;;;5091718;28;20024;-73
2022/11/13 07:52:19;;;;;;;3.88;2.53;;;8.30;99.90;;;;;;5091817;28;20082;-73
2022/11/13 07:54:45;;;;;;;4.68;3.03;;;8.40;99.90;;;;;;5090580;28;20496;-73
2022/11/13 07:57:10;;;;;;;3.53;3.13;;;8.40;99.90;;;;;;5092177;28;20059;-73
2022/11/13 07:59:36;;;;;;;5.32;3.00;;;8.60;99.90;;;;;;5091852;28;20023;-73
2022/11/13 08:02:02;;;;;;;5.40;3.60;;;8.60;99.90;;;;;;5091618;28;20032;-76
2022/11/13 08:04:29;;;;;;;3.33;2.53;;;8.60;99.90;;;;;;5090336;28;20077;-76
2022/11/13 08:06:54;;;;;;;6.22;3.22;;;8.60;99.90;;;;;;5092086;28;20039;-73
2022/11/13 08:09:20;;;;;;;4.13;3.15;;;8.60;99.90;;;;;;5092048;28;20024;-74
2022/11/13 08:11:46;;;;;;;4.82;3.40;;;8.90;99.90;;;;;;5091927;28;20031;-74
2022/11/13 08:14:11;;;;;;;6.68;3.63;;;9.20;99.90;;;;;;5090389;28;20509;-73
2022/11/13 08:16:37;;;;;;;4.18;3.15;;;9.10;99.90;;;;;;5091472;28;20024;-73
2022/11/13 08:19:03;;;;;;;4.22;3.10;;;9.00;99.90;;;;;;5091312;28;20119;-73
2022/11/13 08:21:29;;;;;;;7.28;3.72;;;9.00;99.90;;;;;;5090449;28;20392;-73
2022/11/13 08:23:54;;;;;;;6.40;3.47;;;9.00;99.90;;;;;;5091576;28;20090;-73
2022/11/13 08:26:20;;;;;;;4.07;3.28;;;9.20;99.90;;;;;;5091807;28;20441;-73
2022/11/13 08:28:46;;;;;;;5.40;3.45;;;9.60;99.90;;;;;;5091949;28;20474;-73
2022/11/13 08:31:13;;;;;;;5.38;3.03;;;9.70;99.90;;;;;;5091425;28;20054;-73
2022/11/13 08:33:40;;;;;;;5.45;3.10;;;9.60;99.90;;;;;;5092852;28;20228;-74
2022/11/13 08:36:06;;;;;;;3.78;2.70;;;9.90;99.90;;;;;;5095681;28;20027;-73
2022/11/13 08:38:31;;;;;;;4.65;3.40;;;10.40;99.90;;;;;;5094252;28;20020;-74
2022/11/13 08:40:58;;;;;;;5.25;3.33;;;10.20;99.90;;;;;;5096203;28;20074;-73
2022/11/13 08:43:24;;;;;;;4.13;2.78;;;10.30;99.90;;;;;;5105528;28;20103;-74
2022/11/13 08:45:50;;;;;;;4.63;3.42;;;10.10;99.90;;;;;;5094481;28;20028;-73
2022/11/13 08:48:16;;;;;;;4.05;3.60;;;10.00;99.90;;;;;;5095129;28;20016;-77
2022/11/13 08:50:42;;;;;;;8.32;4.32;;;9.80;99.90;;;;;;5095061;28;20572;-76
2022/11/13 08:53:08;;;;;;;8.00;4.22;;;9.60;99.90;;;;;;5094939;28;20441;-77
2022/11/13 08:55:33;;;;;;;4.30;3.35;;;9.80;99.90;;;;;;5094797;28;20028;-74
2022/11/13 08:58:01;;;;;;;5.65;3.67;;;10.20;99.90;;;;;;5095039;28;20489;-74
2022/11/13 09:00:28;;;;;;;5.50;3.70;;;12.90;99.90;;;;;;5093031;28;20058;-74
2022/11/13 09:02:58;;;;;;;4.28;3.45;;;16.10;99.90;;;;;;5094909;28;20028;-75
2022/11/13 09:05:24;;;;;;;3.83;3.30;;;15.90;99.90;;;;;;5094894;28;20028;-74
2022/11/13 09:07:50;;;;;;;4.75;3.95;;;17.50;99.90;;;;;;5094744;28;20039;-74
2022/11/13 09:10:17;;;;;;;5.53;3.83;;;18.30;99.90;;;;;;5093201;28;20031;-74
2022/11/13 09:12:43;;;;;;;4.82;3.42;;;17.60;99.90;;;;;;5094615;28;20024;-74
2022/11/13 09:15:09;;;;;;;4.00;3.38;;;16.00;99.90;;;;;;5092876;28;20020;-75
2022/11/13 09:17:35;;;;;;;3.92;3.58;;;14.40;99.90;;;;;;5094446;28;20016;-75
2022/11/13 09:20:01;;;;;;;3.88;3.35;;;13.70;99.90;;;;;;5094464;28;20024;-75
2022/11/13 09:22:27;;;;;;;4.05;3.05;;;13.30;99.90;;;;;;5093004;28;20501;-75
2022/11/13 09:24:52;;;;;;;3.67;3.30;;;13.00;99.90;;;;;;5094286;28;20058;-75
2022/11/13 09:27:19;;;;;;;3.70;3.03;;;12.90;99.90;;;;;;5093132;28;20056;-75
2022/11/13 09:29:45;;;;;;;3.45;3.13;;;12.70;99.90;;;;;;5094183;28;20484;-75
2022/11/13 09:32:11;;;;;;;4.07;3.33;;;12.60;99.90;;;;;;5093881;28;20032;-75
2022/11/13 09:34:36;;;;;;;3.47;3.17;;;12.50;99.90;;;;;;5092765;28;20266;-75
2022/11/13 09:37:02;;;;;;;6.00;3.83;;;12.50;99.90;;;;;;5094360;28;20438;-75
2022/11/13 09:39:28;;;;;;;4.20;3.80;;;12.70;99.90;;;;;;5094103;28;20027;-78
2022/11/13 09:42:10;;;;;;;4.55;3.65;;;12.60;99.90;;;;;;5102913;28;20016;-76
2022/11/13 09:44:49;;;;;;;3.60;3.30;;;12.70;99.90;;;;;;5094219;28;20054;-75
2022/11/13 09:47:30;;;;;;;3.80;3.40;;;12.80;99.90;;;;;;5093724;28;20028;-75
2022/11/13 09:50:01;;;;;;;4.32;3.88;;;13.00;99.90;;;;;;5093761;28;20031;-75
2022/11/13 09:52:35;;;;;;;3.90;3.20;;;13.00;99.90;;;;;;5092321;28;20040;-76
2022/11/13 09:55:03;;;;;;;4.05;3.55;;;13.10;99.90;;;;;;5093531;28;20090;-76
2022/11/13 09:57:54;;;;;;;4.60;3.65;;;13.10;99.90;;;;;;5093459;28;20481;-75
2022/11/13 10:00:21;;;;;;;3.90;3.60;;;13.10;99.90;;;;;;5093766;28;20028;-75
2022/11/13 10:03:17;;;;;;;4.13;3.72;;;13.10;99.90;;;;;;5093529;28;20024;-76
2022/11/13 10:06:01;;;;;;;4.05;3.40;;;13.30;99.90;;;;;;5093542;28;20058;-76
2022/11/13 10:08:49;;;;;;;3.92;3.53;;;13.30;99.90;;;;;;5093705;28;20024;-75
2022/11/13 10:11:35;;;;;;;4.05;3.42;;;13.30;99.90;;;;;;5092837;28;20032;-75
2022/11/13 10:14:08;;;;;;;4.45;3.50;;;13.40;99.90;;;;;;5093479;28;20024;-75
2022/11/13 10:16:52;;;;;;;5.00;3.10;;;13.60;99.90;;;;;;5092005;28;20020;-76
2022/11/13 10:19:22;;;;;;;4.32;3.92;;;13.70;99.90;;;;;;5093125;28;20020;-76
2022/11/13 10:21:57;;;;;;;3.50;3.20;;;13.60;99.90;;;;;;5093239;28;20024;-76
2022/11/13 10:24:32;;;;;;;4.68;3.00;;;13.80;99.90;;;;;;5093255;28;20044;-76
2022/11/13 10:26:59;;;;;;;4.07;3.17;;;13.80;99.90;;;;;;5093239;28;20056;-76
2022/11/13 10:29:27;;;;;;;3.45;2.90;;;13.80;99.90;;;;;;5093248;28;20119;-76
2022/11/13 10:31:53;;;;;;;5.30;3.45;;;13.80;99.90;;;;;;5093143;28;20020;-76
2022/11/13 10:34:19;;;;;;;4.45;3.35;;;14.00;99.90;;;;;;5092630;28;20131;-76
2022/11/13 10:36:49;;;;;;;5.30;3.08;;;14.10;99.90;;;;;;5093329;28;20050;-76
2022/11/13 10:39:14;;;;;;;6.13;3.55;;;14.10;99.90;;;;;;5093236;28;20031;-76
2022/11/13 10:41:52;;;;;;;4.47;3.38;;;14.20;99.90;;;;;;5097987;28;20019;-76
2022/11/13 10:44:28;;;;;;;3.80;3.20;;;14.20;99.90;;;;;;5095813;27;20027;-76
2022/11/13 10:47:15;;;;;;;3.50;3.00;;;14.20;99.90;;;;;;5091408;28;20032;-76
2022/11/13 10:49:41;;;;;;;4.40;3.25;;;14.40;99.90;;;;;;5092424;28;20035;-76
2022/11/13 10:52:26;;;;;;;4.22;3.35;;;14.80;99.90;;;;;;5092631;28;20111;-76
2022/11/13 10:55:30;;;;;;;3.00;2.78;;;14.70;99.90;;;;;;5092460;28;20016;-76
2022/11/13 10:57:58;;;;;;;3.33;3.03;;;14.70;99.90;;;;;;5088363;28;20067;-76
2022/11/13 11:00:36;;;;;;;3.55;3.25;;;14.70;99.90;;;;;;5092594;28;20063;-76
2022/11/13 11:03:01;;;;;;;4.43;3.58;;;14.80;99.90;;;;;;5092461;28;20028;-76
2022/11/13 11:05:28;;;;;;;3.25;2.95;;;15.00;99.90;;;;;;5092588;28;20074;-76
2022/11/13 11:07:55;;;;;;;3.35;3.05;;;15.00;99.90;;;;;;5092286;28;20028;-76
2022/11/13 11:10:24;;;;;;;3.30;3.00;;;15.00;99.90;;;;;;5092483;28;20021;-76
2022/11/13 11:12:53;;;;;;;3.72;3.00;;;15.00;99.90;;;;;;5092334;28;20043;-76
2022/11/13 11:15:27;;;;;;;3.78;2.92;;;15.00;99.90;;;;;;5092450;28;20030;-77
2022/11/13 11:17:59;;;;;;;4.15;3.45;;;15.30;99.90;;;;;;5092370;28;20032;-76
2022/11/13 11:20:52;;;;;;;3.83;3.40;;;15.60;99.90;;;;;;5092476;28;20024;-76
2022/11/13 11:23:53;;;;;;;3.80;3.20;;;15.50;99.90;;;;;;5092370;28;20021;-76
2022/11/13 11:26:48;;;;;;;4.90;3.43;;;15.50;99.90;;;;;;5092482;28;20116;-76
2022/11/13 11:29:24;;;;;;;3.53;2.80;;;15.50;99.90;;;;;;5091111;28;20032;-76
2022/11/13 11:32:00;;;;;;;3.60;3.00;;;15.70;99.90;;;;;;5092052;28;20036;-76
2022/11/13 11:34:43;;;;;;;3.30;3.00;;;15.90;99.90;;;;;;5091787;28;20050;-76
2022/11/13 11:37:26;;;;;;;3.55;3.15;;;15.80;99.90;;;;;;5092104;28;20028;-76
2022/11/13 11:40:25;;;;;;;3.50;3.13;;;15.70;99.90;;;;;;5090788;28;20162;-76
2022/11/13 11:42:55;;;;;;;5.13;2.70;;;15.80;99.90;;;;;;5103381;28;20032;-76
2022/11/13 11:45:28;;;;;;;3.28;2.97;;;16.00;99.90;;;;;;5092127;28;20111;-76
2022/11/13 11:47:56;;;;;;;3.20;2.53;;;15.80;99.90;;;;;;5090834;28;20035;-76
2022/11/13 11:50:41;;;;;;;3.22;2.92;;;16.10;99.90;;;;;;5091580;28;20070;-76
2022/11/13 11:53:39;;;;;;;3.42;2.80;;;16.20;99.90;;;;;;5090397;28;20106;-76
2022/11/13 11:56:30;;;;;;;3.05;2.83;;;16.10;99.90;;;;;;5092147;28;20486;-76
2022/11/13 11:59:31;;;;;;;3.10;2.65;;;16.10;99.90;;;;;;5089917;28;20108;-76
2022/11/13 12:02:19;;;;;;;2.88;2.40;;;16.20;99.90;;;;;;5009706;28;20037;-76
2022/11/13 12:04:47;;;;;;;3.05;2.40;;;16.20;99.90;;;;;;4993002;28;20030;-75
2022/11/13 12:07:32;;;;;;;4.07;2.53;;;16.50;99.90;;;;;;5009438;28;20172;-76
2022/11/13 12:10:36;;;;;;;3.10;2.80;;;16.50;99.90;;;;;;5013412;28;20066;-76
2022/11/13 12:13:04;;;;;;;5.00;2.35;;;16.80;99.90;;;;;;5013137;28;20088;-76
2022/11/13 12:15:39;;;;;;;3.67;2.80;;;17.00;99.90;;;;;;5013382;28;20076;-76
2022/11/13 12:18:43;;;;;;;5.93;2.60;;;17.20;99.90;;;;;;5013472;28;20034;-76
2022/11/13 12:21:08;;;;;;;2.65;2.35;;;17.00;99.90;;;;;;5013223;28;20030;-76
2022/11/13 12:23:58;;;;;;;3.15;2.83;;;17.00;99.90;;;;;;5012844;28;20527;-76
2022/11/13 12:26:44;;;;;;;2.78;2.20;;;16.70;99.90;;;;;;5013140;28;20034;-76
2022/11/13 12:29:45;;;;;;;2.83;2.50;;;16.70;99.90;;;;;;4954727;29;20059;-76
2022/11/13 12:32:16;;;;;;;2.88;2.35;;;16.60;99.90;;;;;;4916439;29;20040;-76
2022/11/13 12:34:50;;;;;;;4.55;3.13;;;16.90;99.90;;;;;;4916343;29;20036;-76
2022/11/13 12:37:34;;;;;;;3.63;2.50;;;17.00;99.90;;;;;;4938216;28;20064;-76
2022/11/13 12:40:06;;;;;;;7.75;2.85;;;17.10;99.90;;;;;;4974022;28;20075;-76
2022/11/13 12:42:38;;;;;;;4.57;2.65;;;17.10;99.90;;;;;;5000474;28;20030;-76
2022/11/13 12:45:16;;;;;;;2.85;2.45;;;17.10;99.90;;;;;;4993304;28;20030;-76
2022/11/13 12:47:43;;;;;;;3.03;2.38;;;17.20;99.90;;;;;;4993100;28;20038;-76
2022/11/13 12:50:28;;;;;;;3.67;2.00;;;17.00;99.90;;;;;;4993106;28;20523;-76
2022/11/13 12:53:02;;;;;;;2.63;2.30;;;16.90;99.90;;;;;;4976579;28;20558;-76
2022/11/13 12:55:31;;;;;;;3.55;2.22;;;16.90;99.90;;;;;;4993160;28;20165;-76
2022/11/13 12:58:22;;;;;;;3.47;2.58;;;17.00;99.90;;;;;;4992981;28;20022;-76
2022/11/13 13:00:59;;;;;;;2.93;2.10;;;16.80;99.90;;;;;;4992897;28;20042;-76
2022/11/13 13:03:39;;;;;;;3.70;2.47;;;17.40;99.90;;;;;;4993020;28;20192;-77
2022/11/13 13:06:29;;;;;;;2.95;2.33;;;17.40;99.90;;;;;;5026840;28;20034;-76
2022/11/13 13:09:10;;;;;;;3.83;2.38;;;17.30;99.90;;;;;;5095044;28;20024;-76